Euphony Ace — 3EDG6 — position and weather

sailwx.info

Track history (hours):
 
Tides and Currents Weather Stations Pressure Air Temp Water Temp Dewpoint Dewpoint Depression Visibility Wind Speed Wind Dir Waves Ship Positions

Euphony Ace

Last reported at 2017-Oct-17 11:03 UTC. Time now 2017-Oct-18 11:18 UTC.
Position S 30°28' E 030°51'.

Length 200 m; beam 32.2 m.

Type: Ship. MMSI: 371618000.

Date/timePositionNaut miles runAvg speedWind from/ knotsBaromVisibWave heightAir tempDewpointWater temp
2017-Oct-17 11:03S 30°28' E 030°51'114.9
2017-Oct-17 11:00S 30°27' E 030°51'714.9
2017-Oct-17 10:30S 30°21' E 030°55'918.0
2017-Oct-17 10:01S 30°13' E 031°00'917.8
2017-Oct-17 09:31S 30°05' E 031°06'816.3
2017-Oct-17 09:00S 29°58' E 031°09'713.4
2017-Oct-17 08:31S 29°51' E 031°07'4 7.6
2017-Oct-17 08:01S 29°53' E 031°03'1 2.2
2017-Oct-17 07:28S 29°52' E 031°02'0 0.0
2017-Oct-17 06:58S 29°52' E 031°02'0 0.0
2017-Oct-17 06:28S 29°52' E 031°02'0 0.0
2017-Oct-17 05:52S 29°52' E 031°02'0 0.0
2017-Oct-17 05:28S 29°52' E 031°02'0 0.0
2017-Oct-17 04:58S 29°52' E 031°02'0 0.0
2017-Oct-17 04:28S 29°52' E 031°02'0 0.0
2017-Oct-17 03:58S 29°52' E 031°02'0 0.0
2017-Oct-17 03:16S 29°52' E 031°02'0 0.0
2017-Oct-17 02:58S 29°52' E 031°02'0 0.0
2017-Oct-17 02:28S 29°52' E 031°02'0 0.0
2017-Oct-17 01:58S 29°52' E 031°02'0 0.0
2017-Oct-17 01:28S 29°52' E 031°02'0 0.0
2017-Oct-17 00:58S 29°52' E 031°02'0 0.0
2017-Oct-17 00:28S 29°52' E 031°02'0 0.0
2017-Oct-16 23:58S 29°52' E 031°02'0 0.0
2017-Oct-16 23:28S 29°52' E 031°02'0 0.0
2017-Oct-16 22:58S 29°52' E 031°02'0 0.0
2017-Oct-16 22:28S 29°52' E 031°02'0 0.0
2017-Oct-16 21:58S 29°52' E 031°02'0 0.0
2017-Oct-16 21:28S 29°52' E 031°02'0 0.0
2017-Oct-16 20:58S 29°52' E 031°02'0 0.0
2017-Oct-16 20:28S 29°52' E 031°02'0 0.0
2017-Oct-16 19:58S 29°52' E 031°02'0 0.0
2017-Oct-16 19:28S 29°52' E 031°02'0 0.0
2017-Oct-16 18:58S 29°52' E 031°02'0 0.0
2017-Oct-16 18:28S 29°52' E 031°02'0 0.0
2017-Oct-16 17:58S 29°52' E 031°02'0 0.0
2017-Oct-16 17:28S 29°52' E 031°02'0 0.0
2017-Oct-16 16:58S 29°52' E 031°02'0 0.0
2017-Oct-16 16:28S 29°52' E 031°02'0 0.0
2017-Oct-16 15:58S 29°52' E 031°02'0 0.0
2017-Oct-16 15:28S 29°52' E 031°02'0 0.0
2017-Oct-16 14:58S 29°52' E 031°02'0 0.0
2017-Oct-16 14:28S 29°52' E 031°02'0 0.0
2017-Oct-16 13:28S 29°52' E 031°02'0 0.0
2017-Oct-16 12:58S 29°52' E 031°02'0 0.0
2017-Oct-16 12:28S 29°52' E 031°02'0 0.0
2017-Oct-16 11:58S 29°52' E 031°02'0 0.0
2017-Oct-16 11:28S 29°52' E 031°02'0 0.0
2017-Oct-16 10:58S 29°52' E 031°02'0 0.0
2017-Oct-16 10:28S 29°52' E 031°02'0 0.0
2017-Oct-16 09:58S 29°52' E 031°02'0 0.0
2017-Oct-16 09:28S 29°52' E 031°02'0 0.0
2017-Oct-16 08:58S 29°52' E 031°02'0 0.0
2017-Oct-16 08:28S 29°52' E 031°02'0 0.0
2017-Oct-16 07:58S 29°52' E 031°02'0 0.0
2017-Oct-16 07:28S 29°52' E 031°02'0 0.0
2017-Oct-16 06:58S 29°52' E 031°02'0 0.0
2017-Oct-16 06:28S 29°52' E 031°02'0 0.0
2017-Oct-16 05:52S 29°52' E 031°02'0 0.0
2017-Oct-16 05:28S 29°52' E 031°02'0 0.0
2017-Oct-16 04:58S 29°52' E 031°02'0 0.0
2017-Oct-16 04:28S 29°52' E 031°02'0 0.0
2017-Oct-16 03:58S 29°52' E 031°02'0 0.0
2017-Oct-16 03:28S 29°52' E 031°02'0 0.0
2017-Oct-16 02:58S 29°52' E 031°02'0 0.0
2017-Oct-16 02:28S 29°52' E 031°02'0 0.0
2017-Oct-16 01:58S 29°52' E 031°02'0 0.0
2017-Oct-16 01:28S 29°52' E 031°02'0 0.0
2017-Oct-16 00:55S 29°52' E 031°02'0 0.0
2017-Oct-16 00:28S 29°52' E 031°02'0 0.0
2017-Oct-15 23:58S 29°52' E 031°02'0 0.0
2017-Oct-15 23:28S 29°52' E 031°02'0 0.0
2017-Oct-15 22:58S 29°52' E 031°02'0 0.0
2017-Oct-15 22:28S 29°52' E 031°02'0 0.1
2017-Oct-15 22:00S 29°52' E 031°02'2 3.1
2017-Oct-15 21:30S 29°52' E 031°04'4 8.1
2017-Oct-15 21:00S 29°48' E 031°06'2 4.3
2017-Oct-15 20:30S 29°50' E 031°08'3 6.8
2017-Oct-15 20:00S 29°54' E 031°08'714.1
2017-Oct-15 19:31S 30°00' E 031°06'917.3
2017-Oct-15 19:01S 30°08' E 031°02'918.2
2017-Oct-15 18:31S 30°16' E 030°56'  
Track history (hours):
 
Tides and Currents Weather Stations Pressure Air Temp Water Temp Dewpoint Dewpoint Depression Visibility Wind Speed Wind Dir Waves Ship Positions

Euphony Ace

Last reported at 2017-Oct-17 11:03 UTC. Time now 2017-Oct-18 11:18 UTC.
Position S 30°28' E 030°51'.

Length 200 m; beam 32.2 m.

Type: Ship. MMSI: 371618000.

Date/timePositionNaut miles runAvg speedWind from/ knotsBaromVisibWave heightAir tempDewpointWater temp
2017-Oct-17 11:03S 30°28' E 030°51'114.9
2017-Oct-17 11:00S 30°27' E 030°51'714.9
2017-Oct-17 10:30S 30°21' E 030°55'918.0
2017-Oct-17 10:01S 30°13' E 031°00'917.8
2017-Oct-17 09:31S 30°05' E 031°06'816.3
2017-Oct-17 09:00S 29°58' E 031°09'713.4
2017-Oct-17 08:31S 29°51' E 031°07'4 7.6
2017-Oct-17 08:01S 29°53' E 031°03'1 2.2
2017-Oct-17 07:28S 29°52' E 031°02'0 0.0
2017-Oct-17 06:58S 29°52' E 031°02'0 0.0
2017-Oct-17 06:28S 29°52' E 031°02'0 0.0
2017-Oct-17 05:52S 29°52' E 031°02'0 0.0
2017-Oct-17 05:28S 29°52' E 031°02'0 0.0
2017-Oct-17 04:58S 29°52' E 031°02'0 0.0
2017-Oct-17 04:28S 29°52' E 031°02'0 0.0
2017-Oct-17 03:58S 29°52' E 031°02'0 0.0
2017-Oct-17 03:16S 29°52' E 031°02'0 0.0
2017-Oct-17 02:58S 29°52' E 031°02'0 0.0
2017-Oct-17 02:28S 29°52' E 031°02'0 0.0
2017-Oct-17 01:58S 29°52' E 031°02'0 0.0
2017-Oct-17 01:28S 29°52' E 031°02'0 0.0
2017-Oct-17 00:58S 29°52' E 031°02'0 0.0
2017-Oct-17 00:28S 29°52' E 031°02'0 0.0
2017-Oct-16 23:58S 29°52' E 031°02'0 0.0
2017-Oct-16 23:28S 29°52' E 031°02'0 0.0
2017-Oct-16 22:58S 29°52' E 031°02'0 0.0
2017-Oct-16 22:28S 29°52' E 031°02'0 0.0
2017-Oct-16 21:58S 29°52' E 031°02'0 0.0
2017-Oct-16 21:28S 29°52' E 031°02'0 0.0
2017-Oct-16 20:58S 29°52' E 031°02'0 0.0
2017-Oct-16 20:28S 29°52' E 031°02'0 0.0
2017-Oct-16 19:58S 29°52' E 031°02'0 0.0
2017-Oct-16 19:28S 29°52' E 031°02'0 0.0
2017-Oct-16 18:58S 29°52' E 031°02'0 0.0
2017-Oct-16 18:28S 29°52' E 031°02'0 0.0
2017-Oct-16 17:58S 29°52' E 031°02'0 0.0
2017-Oct-16 17:28S 29°52' E 031°02'0 0.0
2017-Oct-16 16:58S 29°52' E 031°02'0 0.0
2017-Oct-16 16:28S 29°52' E 031°02'0 0.0
2017-Oct-16 15:58S 29°52' E 031°02'0 0.0
2017-Oct-16 15:28S 29°52' E 031°02'0 0.0
2017-Oct-16 14:58S 29°52' E 031°02'0 0.0
2017-Oct-16 14:28S 29°52' E 031°02'0 0.0
2017-Oct-16 13:28S 29°52' E 031°02'0 0.0
2017-Oct-16 12:58S 29°52' E 031°02'0 0.0
2017-Oct-16 12:28S 29°52' E 031°02'0 0.0
2017-Oct-16 11:58S 29°52' E 031°02'0 0.0
2017-Oct-16 11:28S 29°52' E 031°02'0 0.0
2017-Oct-16 10:58S 29°52' E 031°02'0 0.0
2017-Oct-16 10:28S 29°52' E 031°02'0 0.0
2017-Oct-16 09:58S 29°52' E 031°02'0 0.0
2017-Oct-16 09:28S 29°52' E 031°02'0 0.0
2017-Oct-16 08:58S 29°52' E 031°02'0 0.0
2017-Oct-16 08:28S 29°52' E 031°02'0 0.0
2017-Oct-16 07:58S 29°52' E 031°02'0 0.0
2017-Oct-16 07:28S 29°52' E 031°02'0 0.0
2017-Oct-16 06:58S 29°52' E 031°02'0 0.0
2017-Oct-16 06:28S 29°52' E 031°02'0 0.0
2017-Oct-16 05:52S 29°52' E 031°02'0 0.0
2017-Oct-16 05:28S 29°52' E 031°02'0 0.0
2017-Oct-16 04:58S 29°52' E 031°02'0 0.0
2017-Oct-16 04:28S 29°52' E 031°02'0 0.0
2017-Oct-16 03:58S 29°52' E 031°02'0 0.0
2017-Oct-16 03:28S 29°52' E 031°02'0 0.0
2017-Oct-16 02:58S 29°52' E 031°02'0 0.0
2017-Oct-16 02:28S 29°52' E 031°02'0 0.0
2017-Oct-16 01:58S 29°52' E 031°02'0 0.0
2017-Oct-16 01:28S 29°52' E 031°02'0 0.0
2017-Oct-16 00:55S 29°52' E 031°02'0 0.0
2017-Oct-16 00:28S 29°52' E 031°02'0 0.0
2017-Oct-15 23:58S 29°52' E 031°02'0 0.0
2017-Oct-15 23:28S 29°52' E 031°02'0 0.0
2017-Oct-15 22:58S 29°52' E 031°02'0 0.0
2017-Oct-15 22:28S 29°52' E 031°02'0 0.1
2017-Oct-15 22:00S 29°52' E 031°02'2 3.1
2017-Oct-15 21:30S 29°52' E 031°04'4 8.1
2017-Oct-15 21:00S 29°48' E 031°06'2 4.3
2017-Oct-15 20:30S 29°50' E 031°08'3 6.8
2017-Oct-15 20:00S 29°54' E 031°08'714.1
2017-Oct-15 19:31S 30°00' E 031°06'917.3
2017-Oct-15 19:01S 30°08' E 031°02'918.2
2017-Oct-15 18:31S 30°16' E 030°56'  

Dump ship's entire track history